createdAt,value
2022-10-30T00:00:10.106Z,1010.36
2022-10-30T00:00:45.411Z,1010.38
2022-10-30T00:01:20.411Z,1010.36
2022-10-30T00:01:55.681Z,1010.39
2022-10-30T00:02:30.961Z,1010.38
2022-10-30T00:03:05.925Z,1010.44
2022-10-30T00:03:41.154Z,1010.42
2022-10-30T00:04:16.378Z,1010.47
2022-10-30T00:04:51.768Z,1010.45
2022-10-30T00:05:27.323Z,1010.47
2022-10-30T00:06:02.994Z,1010.46
2022-10-30T00:06:38.029Z,1010.43
2022-10-30T00:07:13.330Z,1010.41
2022-10-30T00:07:48.701Z,1010.47
2022-10-30T00:08:23.868Z,1010.43
2022-10-30T00:08:59.082Z,1010.43
2022-10-30T00:09:34.256Z,1010.45
2022-10-30T00:10:09.649Z,1010.45
2022-10-30T00:10:44.854Z,1010.45
2022-10-30T00:11:20.120Z,1010.42
2022-10-30T00:11:55.408Z,1010.42
2022-10-30T00:12:30.539Z,1010.40
2022-10-30T00:13:05.829Z,1010.45
2022-10-30T00:13:41.011Z,1010.41
2022-10-30T00:14:17.106Z,1010.44
2022-10-30T00:14:52.329Z,1010.49
2022-10-30T00:15:27.530Z,1010.43
2022-10-30T00:16:03.598Z,1010.44
2022-10-30T00:16:38.887Z,1010.39
2022-10-30T00:17:14.034Z,1010.42
2022-10-30T00:17:49.593Z,1010.44
2022-10-30T00:18:24.893Z,1010.44
2022-10-30T00:19:01.109Z,1010.40
2022-10-30T00:19:36.317Z,1010.45
2022-10-30T00:20:11.604Z,1010.44
2022-10-30T00:20:46.914Z,1010.44
2022-10-30T00:21:22.426Z,1010.47
2022-10-30T00:22:18.908Z,1010.45
2022-10-30T00:22:55.028Z,1010.47
2022-10-30T00:23:29.685Z,1010.44
2022-10-30T00:24:04.923Z,1010.49
2022-10-30T00:24:40.335Z,1010.51
2022-10-30T00:25:15.391Z,1010.50
2022-10-30T00:25:50.785Z,1010.48
2022-10-30T00:26:26.926Z,1010.49
2022-10-30T00:27:02.469Z,1010.46
2022-10-30T00:27:37.563Z,1010.48
2022-10-30T00:28:12.993Z,1010.51
2022-10-30T00:28:48.156Z,1010.48
2022-10-30T00:29:23.707Z,1010.49
2022-10-30T00:29:59.564Z,1010.48
2022-10-30T00:30:34.846Z,1010.49
2022-10-30T00:31:10.081Z,1010.46
2022-10-30T00:31:45.167Z,1010.48
2022-10-30T00:32:20.257Z,1010.45
2022-10-30T00:32:55.935Z,1010.50
2022-10-30T00:33:31.030Z,1010.50
2022-10-30T00:34:06.247Z,1010.52
2022-10-30T00:34:41.251Z,1010.51
2022-10-30T00:35:16.432Z,1010.48
2022-10-30T00:35:52.285Z,1010.51
2022-10-30T00:36:27.565Z,1010.50
2022-10-30T00:37:02.662Z,1010.49
2022-10-30T00:37:37.746Z,1010.47
2022-10-30T00:38:13.072Z,1010.49
2022-10-30T00:38:48.478Z,1010.50
2022-10-30T00:39:23.458Z,1010.52
2022-10-30T00:39:58.960Z,1010.54
2022-10-30T00:40:34.247Z,1010.56
2022-10-30T00:41:09.241Z,1010.52
2022-10-30T00:41:44.409Z,1010.53
2022-10-30T00:42:19.437Z,1010.54
2022-10-30T00:42:54.527Z,1010.52
2022-10-30T00:43:29.721Z,1010.49
2022-10-30T00:44:05.292Z,1010.52
2022-10-30T00:44:40.386Z,1010.50
2022-10-30T00:45:15.901Z,1010.49
2022-10-30T00:45:51.285Z,1010.49
2022-10-30T00:46:26.499Z,1010.51
2022-10-30T00:47:01.718Z,1010.52
2022-10-30T00:47:37.014Z,1010.52
2022-10-30T00:48:12.143Z,1010.55
2022-10-30T00:48:47.354Z,1010.53
2022-10-30T00:49:22.371Z,1010.52
2022-10-30T00:49:57.681Z,1010.57
2022-10-30T00:50:32.891Z,1010.58
2022-10-30T00:51:08.009Z,1010.56
2022-10-30T00:51:43.209Z,1010.57
2022-10-30T00:52:18.507Z,1010.57
2022-10-30T00:52:53.595Z,1010.56
2022-10-30T00:53:28.910Z,1010.56
2022-10-30T00:54:04.316Z,1010.54
2022-10-30T00:54:39.512Z,1010.53
2022-10-30T00:55:14.452Z,1010.57
2022-10-30T00:55:49.791Z,1010.51
2022-10-30T00:56:25.330Z,1010.58
2022-10-30T00:57:00.424Z,1010.54
2022-10-30T00:57:35.571Z,1010.59
2022-10-30T00:58:10.815Z,1010.52
2022-10-30T00:58:45.867Z,1010.53
2022-10-30T00:59:21.117Z,1010.50
2022-10-30T00:59:56.290Z,1010.53
2022-10-30T01:00:31.605Z,1010.54
2022-10-30T01:01:07.180Z,1010.53
2022-10-30T01:01:42.642Z,1010.54
2022-10-30T01:02:17.739Z,1010.54
2022-10-30T01:02:53.198Z,1010.54
2022-10-30T01:03:28.122Z,1010.54
2022-10-30T01:04:03.329Z,1010.55
2022-10-30T01:04:38.588Z,1010.58
2022-10-30T01:05:13.909Z,1010.56
2022-10-30T01:05:49.234Z,1010.54
2022-10-30T01:06:24.680Z,1010.58
2022-10-30T01:06:59.998Z,1010.61
2022-10-30T01:07:35.528Z,1010.59
2022-10-30T01:08:10.707Z,1010.59
2022-10-30T01:08:46.411Z,1010.59
2022-10-30T01:09:21.438Z,1010.58
2022-10-30T01:09:56.654Z,1010.56
2022-10-30T01:10:32.149Z,1010.59
2022-10-30T01:11:08.790Z,1010.58
2022-10-30T01:11:43.887Z,1010.63
2022-10-30T01:12:19.113Z,1010.60
2022-10-30T01:12:54.600Z,1010.60
2022-10-30T01:13:29.743Z,1010.60
2022-10-30T01:14:05.353Z,1010.58
2022-10-30T01:14:40.508Z,1010.62
2022-10-30T01:15:16.591Z,1010.63
2022-10-30T01:15:51.823Z,1010.62
2022-10-30T01:16:27.146Z,1010.66
2022-10-30T01:17:02.372Z,1010.62
2022-10-30T01:17:37.700Z,1010.63
2022-10-30T01:18:12.845Z,1010.65
2022-10-30T01:18:47.858Z,1010.62
2022-10-30T01:19:24.051Z,1010.67
2022-10-30T01:19:59.448Z,1010.63
2022-10-30T01:20:34.500Z,1010.62
2022-10-30T01:21:10.154Z,1010.63
2022-10-30T01:21:45.385Z,1010.59
2022-10-30T01:22:20.535Z,1010.61
2022-10-30T01:22:56.091Z,1010.61
2022-10-30T01:23:31.004Z,1010.60
2022-10-30T01:24:06.304Z,1010.63
2022-10-30T01:24:41.518Z,1010.67
2022-10-30T01:25:16.773Z,1010.65
2022-10-30T01:25:52.231Z,1010.65
2022-10-30T01:26:27.834Z,1010.65
2022-10-30T01:27:03.238Z,1010.64
2022-10-30T01:27:38.492Z,1010.66
2022-10-30T01:28:13.999Z,1010.65
2022-10-30T01:28:49.265Z,1010.66
2022-10-30T01:29:24.546Z,1010.66
2022-10-30T01:29:59.639Z,1010.64
2022-10-30T01:30:34.894Z,1010.61
2022-10-30T01:31:10.219Z,1010.60
2022-10-30T01:31:45.900Z,1010.62
2022-10-30T01:32:21.639Z,1010.62
2022-10-30T01:32:57.318Z,1010.62
2022-10-30T01:33:32.188Z,1010.62
2022-10-30T01:34:07.414Z,1010.58
2022-10-30T23:00:53.637Z,1013.39
2022-10-30T23:01:29.100Z,1013.41
2022-10-30T23:02:04.231Z,1013.43
2022-10-30T23:02:39.425Z,1013.42
2022-10-30T23:03:14.457Z,1013.41
2022-10-30T23:03:49.775Z,1013.46
2022-10-30T23:04:25.101Z,1013.44
2022-10-30T23:05:00.193Z,1013.45
2022-10-30T23:05:35.473Z,1013.46
2022-10-30T23:06:10.770Z,1013.51
2022-10-30T23:06:45.765Z,1013.50
2022-10-30T23:07:20.955Z,1013.53
2022-10-30T23:07:56.249Z,1013.54
2022-10-30T23:08:31.535Z,1013.54
2022-10-30T23:09:06.720Z,1013.52
2022-10-30T23:09:41.814Z,1013.54
2022-10-30T23:10:17.092Z,1013.57
2022-10-30T23:10:52.399Z,1013.52
2022-10-30T23:11:27.768Z,1013.55
2022-10-30T23:12:02.957Z,1013.52
2022-10-30T23:12:45.179Z,1013.56
2022-10-30T23:13:20.271Z,1013.57
2022-10-30T23:13:55.472Z,1013.53
2022-10-30T23:14:30.708Z,1013.57
2022-10-30T23:15:06.039Z,1013.55
2022-10-30T23:15:41.426Z,1013.57
2022-10-30T23:16:16.638Z,1013.55
2022-10-30T23:16:51.736Z,1013.53
2022-10-30T23:17:26.839Z,1013.56
2022-10-30T23:18:02.437Z,1013.55
2022-10-30T23:18:37.496Z,1013.55
2022-10-30T23:19:12.695Z,1013.57
2022-10-30T23:19:47.815Z,1013.52
2022-10-30T23:20:22.960Z,1013.56
2022-10-30T23:20:58.301Z,1013.56
2022-10-30T23:21:33.387Z,1013.55
2022-10-30T23:22:08.779Z,1013.56
2022-10-30T23:22:44.044Z,1013.60
2022-10-30T23:23:19.157Z,1013.62
2022-10-30T23:23:54.432Z,1013.61
2022-10-30T23:24:29.623Z,1013.65
2022-10-30T23:25:04.977Z,1013.61
2022-10-30T23:25:40.253Z,1013.67
2022-10-30T23:26:15.498Z,1013.65
2022-10-30T23:26:50.678Z,1013.67
2022-10-30T23:27:25.660Z,1013.71
2022-10-30T23:28:01.169Z,1013.70
2022-10-30T23:28:36.142Z,1013.70
2022-10-30T23:29:11.257Z,1013.72
2022-10-30T23:29:46.347Z,1013.73
2022-10-30T23:30:21.792Z,1013.73
2022-10-30T23:30:57.049Z,1013.74
2022-10-30T23:31:32.507Z,1013.71
2022-10-30T23:32:07.711Z,1013.75
2022-10-30T23:32:43.148Z,1013.75
2022-10-30T23:33:18.433Z,1013.75
2022-10-30T23:33:53.944Z,1013.69
2022-10-30T23:34:29.194Z,1013.75
2022-10-30T23:35:04.364Z,1013.76
2022-10-30T23:35:39.535Z,1013.77
2022-10-30T23:36:14.683Z,1013.74
2022-10-30T23:36:49.894Z,1013.73
2022-10-30T23:37:25.127Z,1013.78
2022-10-30T23:38:00.219Z,1013.73
2022-10-30T23:38:35.543Z,1013.74
2022-10-30T23:39:10.839Z,1013.70
2022-10-30T23:39:45.855Z,1013.72
2022-10-30T23:40:21.145Z,1013.75
2022-10-30T23:40:56.427Z,1013.72
2022-10-30T23:41:31.609Z,1013.72
2022-10-30T23:42:06.598Z,1013.72
2022-10-30T23:42:42.208Z,1013.73
2022-10-30T23:43:17.314Z,1013.71
2022-10-30T23:43:52.623Z,1013.70
2022-10-30T23:44:27.821Z,1013.69
2022-10-30T23:45:03.208Z,1013.73
2022-10-30T23:45:38.318Z,1013.71
2022-10-30T23:46:13.500Z,1013.74
2022-10-30T23:46:48.633Z,1013.75
2022-10-30T23:47:23.954Z,1013.70
2022-10-30T23:47:59.002Z,1013.73
2022-10-30T23:48:34.167Z,1013.72
2022-10-30T23:49:09.352Z,1013.75
2022-10-30T23:49:44.652Z,1013.74
2022-10-30T23:50:19.694Z,1013.76
2022-10-30T23:50:54.791Z,1013.78
2022-10-30T23:51:29.976Z,1013.75
2022-10-30T23:52:05.262Z,1013.73
2022-10-30T23:52:40.388Z,1013.72
2022-10-30T23:53:15.671Z,1013.76
2022-10-30T23:53:50.866Z,1013.78
2022-10-30T23:54:26.073Z,1013.79
2022-10-30T23:55:01.707Z,1013.79
2022-10-30T23:55:37.007Z,1013.78
2022-10-30T23:56:12.119Z,1013.79
2022-10-30T23:56:47.414Z,1013.81
2022-10-30T23:57:22.702Z,1013.81
2022-10-30T23:57:58.366Z,1013.76
2022-10-30T23:58:33.383Z,1013.78
2022-10-30T23:59:08.499Z,1013.78
2022-10-30T23:59:43.929Z,1013.81
